createdAt,value
2019-05-02T00:00:47.823Z,17.50
2019-05-02T00:03:18.243Z,17.50
2019-05-02T00:05:48.121Z,17.50
2019-05-02T00:08:17.942Z,17.40
2019-05-02T00:10:48.518Z,17.30
2019-05-02T00:13:18.347Z,17.30
2019-05-02T00:15:50.012Z,17.20
2019-05-02T00:18:19.826Z,17.10
2019-05-02T00:20:49.604Z,17.10
2019-05-02T00:23:22.930Z,17.00
2019-05-02T00:25:52.550Z,16.90
2019-05-02T00:28:22.694Z,16.90
2019-05-02T00:30:52.465Z,16.80
2019-05-02T00:33:22.297Z,16.80
2019-05-02T00:35:52.053Z,16.70
2019-05-02T00:38:22.007Z,16.70
2019-05-02T00:40:52.588Z,16.70
2019-05-02T00:43:22.731Z,16.60
2019-05-02T00:45:55.036Z,16.60
2019-05-02T00:48:33.017Z,16.60
2019-05-02T00:51:02.903Z,16.60
2019-05-02T00:53:33.250Z,16.60
2019-05-02T00:56:05.053Z,16.50
2019-05-02T00:58:35.452Z,16.50
2019-05-02T01:01:33.473Z,16.40
2019-05-02T01:04:08.777Z,16.40
2019-05-02T01:06:38.961Z,16.30
2019-05-02T01:09:10.955Z,16.30
2019-05-02T01:11:41.644Z,16.20
2019-05-02T01:14:11.481Z,16.20
2019-05-02T01:16:41.257Z,16.20
2019-05-02T01:19:12.127Z,16.10
2019-05-02T01:21:43.474Z,16.10
2019-05-02T01:24:13.391Z,16.10
2019-05-02T01:26:50.476Z,16.00
2019-05-02T01:29:35.017Z,16.00
2019-05-02T01:32:30.106Z,15.90
2019-05-02T01:35:06.487Z,15.90
2019-05-02T01:37:54.909Z,15.80
2019-05-02T01:40:25.820Z,15.70
2019-05-02T01:42:56.681Z,15.60
2019-05-02T01:45:26.379Z,15.60
2019-05-02T01:47:56.173Z,15.50
2019-05-02T01:50:28.920Z,15.40
2019-05-02T01:52:58.526Z,15.40
2019-05-02T01:55:29.725Z,15.40
2019-05-02T01:57:59.901Z,15.40
2019-05-02T02:00:30.282Z,15.40
2019-05-02T02:03:04.173Z,15.40
2019-05-02T02:05:33.476Z,15.50
2019-05-02T02:08:03.748Z,15.40
2019-05-02T02:10:33.565Z,15.40
2019-05-02T02:13:05.220Z,15.50
2019-05-02T02:15:34.779Z,15.50
2019-05-02T02:18:04.576Z,15.50
2019-05-02T02:20:45.136Z,15.50
2019-05-02T02:23:45.051Z,15.50
2019-05-02T02:26:13.921Z,15.40
2019-05-02T02:28:43.827Z,15.40
2019-05-02T02:31:14.036Z,15.40
2019-05-02T02:33:48.036Z,15.40
2019-05-02T02:36:15.795Z,15.30
2019-05-02T02:38:45.599Z,15.30
2019-05-02T02:41:15.824Z,15.30
2019-05-02T02:43:54.714Z,15.30
2019-05-02T02:46:30.878Z,15.30
2019-05-02T02:48:59.530Z,15.20
2019-05-02T02:51:29.337Z,15.30
2019-05-02T02:54:04.340Z,15.20
2019-05-02T02:56:34.592Z,15.20
2019-05-02T02:59:02.991Z,15.20
2019-05-02T03:01:32.826Z,15.30
2019-05-02T03:04:09.548Z,15.20
2019-05-02T03:06:38.441Z,15.20
2019-05-02T03:09:06.830Z,15.20
2019-05-02T03:12:07.682Z,15.20
2019-05-02T03:14:47.311Z,15.10
2019-05-02T03:17:13.006Z,15.10
2019-05-02T03:19:42.785Z,15.00
2019-05-02T03:22:13.154Z,15.00
2019-05-02T03:24:44.291Z,14.90
2019-05-02T03:27:14.750Z,14.90
2019-05-02T03:29:44.977Z,14.90
2019-05-02T03:32:30.799Z,14.90
2019-05-02T03:34:52.462Z,14.80
2019-05-02T03:37:18.312Z,14.90
2019-05-02T03:39:57.068Z,14.80
2019-05-02T03:42:20.101Z,14.90
2019-05-02T03:44:56.352Z,14.90
2019-05-02T03:47:22.977Z,14.90
2019-05-02T03:49:53.692Z,14.90
2019-05-02T03:52:24.395Z,14.90
2019-05-02T03:54:54.198Z,14.90
2019-05-02T03:57:32.431Z,14.90
2019-05-02T03:59:55.437Z,14.90
2019-05-02T04:02:25.618Z,14.80
2019-05-02T04:05:00.397Z,14.80
2019-05-02T04:07:39.811Z,14.70
2019-05-02T04:10:00.328Z,14.60
2019-05-02T04:12:32.699Z,14.50
2019-05-02T04:15:02.038Z,14.50
2019-05-02T04:17:35.748Z,14.30
2019-05-02T04:20:09.630Z,14.30
2019-05-02T04:22:36.110Z,14.20
2019-05-02T04:25:06.578Z,14.10
2019-05-02T04:27:36.564Z,14.00
2019-05-02T04:30:11.551Z,14.00
2019-05-02T04:32:42.500Z,13.90
2019-05-02T04:35:10.292Z,13.90
2019-05-02T04:37:40.942Z,13.80
2019-05-02T04:40:12.499Z,13.80
2019-05-02T04:42:42.566Z,13.80
2019-05-02T04:45:24.914Z,13.80
2019-05-02T04:47:57.454Z,13.80
2019-05-02T04:50:18.496Z,13.80
2019-05-02T04:52:52.491Z,13.70
2019-05-02T04:55:26.184Z,13.70
2019-05-02T04:57:51.364Z,13.70
2019-05-02T05:00:28.719Z,13.70
2019-05-02T05:02:58.920Z,13.70
2019-05-02T05:05:31.352Z,13.70
2019-05-02T05:08:00.241Z,13.70
2019-05-02T05:10:40.255Z,13.70
2019-05-02T05:13:02.082Z,13.80
2019-05-02T05:15:38.296Z,13.80
2019-05-02T05:18:04.612Z,13.80
2019-05-02T05:20:37.716Z,13.90
2019-05-02T05:23:08.112Z,13.90
2019-05-02T05:25:42.835Z,13.90
2019-05-02T05:28:12.636Z,13.90
2019-05-02T05:30:45.143Z,13.90
2019-05-02T05:33:13.889Z,13.90
2019-05-02T05:35:48.847Z,14.00
2019-05-02T05:38:18.215Z,14.00
2019-05-02T05:40:50.123Z,14.00
2019-05-02T05:43:20.563Z,14.00
2019-05-02T05:45:56.102Z,14.10
2019-05-02T05:48:22.052Z,14.10
2019-05-02T05:50:52.405Z,14.10
2019-05-02T05:53:24.465Z,14.10
2019-05-02T05:55:59.000Z,14.20
2019-05-02T05:58:28.294Z,14.20
2019-05-02T06:00:58.423Z,14.20
2019-05-02T06:03:28.421Z,14.20
2019-05-02T06:05:58.238Z,14.20
2019-05-02T06:08:28.071Z,14.30
2019-05-02T06:10:58.262Z,14.30
2019-05-02T06:13:29.148Z,14.30
2019-05-02T06:16:02.808Z,14.40
2019-05-02T06:18:31.440Z,14.40
2019-05-02T06:21:03.359Z,14.50
2019-05-02T06:23:36.306Z,14.50
2019-05-02T06:26:08.031Z,14.60
2019-05-02T06:28:36.202Z,14.60
2019-05-02T06:31:07.569Z,14.70
2019-05-02T06:33:39.030Z,14.70
2019-05-02T06:36:08.787Z,14.80
2019-05-02T06:38:38.579Z,14.80
2019-05-02T06:41:08.361Z,14.90
2019-05-02T06:43:41.079Z,14.90
2019-05-02T06:46:16.445Z,15.00
2019-05-02T06:48:42.494Z,15.10
2019-05-02T06:51:19.655Z,15.10
2019-05-02T06:53:47.007Z,15.20
2019-05-02T06:56:15.596Z,15.30
2019-05-02T06:58:45.563Z,15.30
2019-05-02T07:01:16.312Z,15.40
2019-05-02T07:03:47.615Z,15.50
2019-05-02T07:06:18.130Z,15.50
2019-05-02T07:08:48.194Z,15.60
2019-05-02T07:11:18.379Z,15.70
2019-05-02T07:13:48.174Z,15.70
2019-05-02T07:16:37.496Z,15.70
2019-05-02T07:19:05.701Z,15.80
2019-05-02T07:21:35.814Z,15.80
2019-05-02T07:24:06.116Z,15.80
2019-05-02T07:26:36.289Z,15.90
2019-05-02T07:29:06.102Z,15.90
2019-05-02T07:31:35.894Z,15.90
2019-05-02T07:34:08.083Z,16.00
2019-05-02T07:36:38.355Z,16.00
2019-05-02T07:39:09.389Z,16.10
2019-05-02T07:41:39.317Z,16.10
2019-05-02T07:44:09.134Z,16.10
2019-05-02T07:46:51.247Z,16.20
2019-05-02T07:49:10.395Z,16.20
2019-05-02T07:51:40.574Z,16.20
2019-05-02T07:54:10.343Z,16.30
2019-05-02T07:56:40.163Z,16.30
2019-05-02T07:59:09.942Z,16.40
2019-05-02T08:01:40.276Z,16.40
2019-05-02T08:04:12.830Z,16.40
2019-05-02T08:06:44.553Z,16.50
2019-05-02T08:09:14.111Z,16.50
2019-05-02T08:11:44.466Z,16.50
2019-05-02T08:14:21.775Z,16.60
2019-05-02T08:17:05.620Z,16.60
2019-05-02T08:19:30.797Z,16.60
2019-05-02T08:22:04.661Z,16.70
2019-05-02T08:24:33.015Z,16.70
2019-05-02T08:27:16.506Z,16.70
2019-05-02T08:29:46.251Z,16.70
2019-05-02T08:32:16.043Z,16.70
2019-05-02T08:34:51.309Z,16.80
2019-05-02T08:37:17.789Z,16.80
2019-05-02T08:39:48.227Z,16.80
2019-05-02T08:42:18.011Z,16.80
2019-05-02T08:44:51.312Z,16.80
2019-05-02T08:47:19.598Z,16.90
2019-05-02T08:49:54.641Z,16.90
2019-05-02T08:52:22.120Z,16.90
2019-05-02T08:54:53.160Z,17.00
2019-05-02T08:57:23.870Z,17.00
2019-05-02T08:59:55.329Z,17.00
2019-05-02T09:02:27.239Z,17.10
2019-05-02T09:04:58.836Z,17.10
2019-05-02T09:07:31.705Z,17.20
2019-05-02T09:10:00.188Z,17.20
2019-05-02T09:12:32.001Z,17.20
2019-05-02T09:15:02.708Z,17.30
2019-05-02T09:17:38.237Z,17.30
2019-05-02T09:20:15.422Z,17.40
2019-05-02T09:22:37.287Z,17.40
2019-05-02T09:25:07.335Z,17.50
2019-05-02T09:27:37.513Z,17.50
2019-05-02T09:30:07.991Z,17.50
2019-05-02T09:32:38.175Z,17.60
2019-05-02T09:35:07.967Z,17.60
2019-05-02T09:37:37.796Z,17.70
2019-05-02T09:40:12.495Z,17.70
2019-05-02T09:42:40.135Z,17.80
2019-05-02T09:45:15.917Z,17.80
2019-05-02T09:47:55.761Z,17.90
2019-05-02T09:50:20.778Z,17.90
2019-05-02T09:52:49.002Z,18.00
2019-05-02T09:55:19.286Z,18.10
2019-05-02T09:57:51.922Z,18.10
2019-05-02T10:00:41.801Z,18.20
2019-05-02T10:03:12.196Z,18.30
2019-05-02T10:05:43.192Z,18.40
2019-05-02T10:08:13.832Z,18.40
2019-05-02T10:10:45.918Z,18.50
2019-05-02T10:13:16.298Z,18.60
2019-05-02T10:15:46.664Z,18.70
2019-05-02T10:18:19.669Z,18.80
2019-05-02T10:20:49.409Z,18.80
2019-05-02T10:23:21.459Z,18.90
2019-05-02T10:25:52.150Z,19.00
2019-05-02T10:28:22.899Z,19.10
2019-05-02T10:30:56.673Z,19.20
2019-05-02T10:33:27.964Z,19.20
2019-05-02T10:35:56.233Z,19.30
2019-05-02T10:38:26.466Z,19.30
2019-05-02T10:41:01.484Z,19.40
2019-05-02T10:43:27.755Z,19.50
2019-05-02T10:46:03.187Z,19.60
2019-05-02T10:48:34.576Z,19.70
2019-05-02T10:51:25.973Z,19.80
2019-05-02T10:53:56.354Z,19.90
2019-05-02T10:56:25.683Z,20.00
2019-05-02T10:58:55.857Z,20.00
2019-05-02T11:01:27.217Z,20.00
2019-05-02T11:03:58.413Z,20.00
2019-05-02T11:06:28.259Z,20.00
2019-05-02T11:08:58.375Z,20.00
2019-05-02T11:11:28.660Z,20.00
2019-05-02T11:14:16.982Z,20.00
2019-05-02T11:16:57.949Z,20.10
2019-05-02T11:19:39.630Z,20.10
2019-05-02T11:22:09.427Z,20.20
2019-05-02T11:24:41.692Z,20.10
2019-05-02T11:27:12.790Z,20.20
2019-05-02T11:29:42.713Z,20.20
2019-05-02T11:32:12.855Z,20.20
2019-05-02T11:34:43.215Z,20.20
2019-05-02T11:37:13.408Z,20.20
2019-05-02T11:39:49.447Z,20.20
2019-05-02T11:42:17.672Z,20.20
2019-05-02T11:44:47.490Z,20.20
2019-05-02T11:47:22.735Z,20.20
2019-05-02T11:49:53.947Z,20.20
2019-05-02T11:52:22.150Z,20.10
2019-05-02T11:54:52.173Z,20.10
2019-05-02T11:57:28.512Z,20.10
2019-05-02T12:00:07.001Z,20.10
2019-05-02T12:03:02.040Z,20.20
2019-05-02T12:05:39.190Z,20.20
2019-05-02T12:08:09.475Z,20.40
2019-05-02T12:10:39.981Z,20.50
2019-05-02T12:13:11.961Z,20.70
2019-05-02T12:15:44.172Z,20.80
2019-05-02T12:18:13.668Z,21.00
2019-05-02T12:20:44.432Z,21.20
2019-05-02T12:23:14.639Z,21.40
2019-05-02T12:25:44.423Z,21.50
2019-05-02T12:28:14.772Z,21.60
2019-05-02T12:30:45.070Z,21.80
2019-05-02T12:33:15.278Z,21.90
2019-05-02T12:35:45.609Z,22.00
2019-05-02T12:38:15.434Z,22.10
2019-05-02T12:40:45.190Z,22.20
2019-05-02T12:43:14.989Z,22.30
2019-05-02T12:45:45.232Z,22.30
2019-05-02T12:48:15.511Z,22.40
2019-05-02T12:50:45.357Z,22.50
2019-05-02T12:53:15.602Z,22.50
2019-05-02T12:55:45.759Z,22.60
2019-05-02T12:58:15.579Z,22.60
2019-05-02T13:00:46.602Z,22.60
2019-05-02T13:03:35.253Z,22.60
2019-05-02T13:06:05.076Z,22.60
2019-05-02T13:08:38.259Z,22.50
2019-05-02T13:11:18.892Z,22.50
2019-05-02T13:13:48.713Z,22.50
2019-05-02T13:16:18.454Z,22.50
2019-05-02T13:18:48.639Z,22.40
2019-05-02T13:21:23.553Z,22.40
2019-05-02T13:24:16.208Z,22.40
2019-05-02T13:26:44.002Z,22.40
2019-05-02T13:29:13.806Z,22.40
2019-05-02T13:31:52.260Z,22.40
2019-05-02T13:34:31.930Z,22.40
2019-05-02T13:37:02.943Z,22.30
2019-05-02T13:39:54.845Z,22.30
2019-05-02T13:42:24.994Z,22.30
2019-05-02T13:45:02.344Z,22.30
2019-05-02T13:47:32.573Z,22.20
2019-05-02T13:50:03.911Z,22.20
2019-05-02T13:52:34.621Z,22.20
2019-05-02T13:55:06.115Z,22.20
2019-05-02T13:57:41.782Z,22.10
2019-05-02T14:00:08.212Z,22.10
2019-05-02T14:02:39.809Z,22.20
2019-05-02T14:05:09.796Z,22.30
2019-05-02T14:07:42.915Z,22.40
2019-05-02T14:10:22.682Z,22.50
2019-05-02T14:13:03.199Z,22.60
2019-05-02T14:15:38.310Z,22.80
2019-05-02T14:18:08.040Z,22.80
2019-05-02T14:20:37.781Z,22.90
2019-05-02T14:23:07.614Z,22.90
2019-05-02T14:25:37.363Z,22.90
2019-05-02T14:28:07.637Z,22.90
2019-05-02T14:30:43.308Z,22.90
2019-05-02T14:33:14.672Z,22.80
2019-05-02T14:35:44.617Z,22.80
2019-05-02T14:38:15.293Z,22.90
2019-05-02T14:41:17.451Z,22.90
2019-05-02T14:43:56.921Z,23.00
2019-05-02T14:46:35.462Z,23.10
2019-05-02T14:48:59.403Z,23.20
2019-05-02T14:51:29.208Z,23.30
2019-05-02T14:54:03.598Z,23.40
2019-05-02T14:56:58.595Z,23.50
2019-05-02T14:59:29.047Z,23.60
2019-05-02T15:02:05.753Z,23.70
2019-05-02T15:04:38.085Z,23.90
2019-05-02T15:07:06.941Z,23.90
2019-05-02T15:09:36.768Z,24.00
2019-05-02T15:12:13.992Z,24.10
2019-05-02T15:14:39.802Z,24.20
2019-05-02T15:17:12.129Z,24.30
2019-05-02T15:19:42.777Z,24.30
2019-05-02T15:22:13.013Z,24.40
2019-05-02T15:24:42.837Z,24.50
2019-05-02T15:27:17.573Z,24.50
2019-05-02T15:29:44.547Z,24.50
2019-05-02T15:32:37.165Z,24.50
2019-05-02T15:35:27.148Z,24.50
2019-05-02T15:38:02.666Z,24.60
2019-05-02T15:43:02.817Z,24.70
2019-05-02T15:45:36.706Z,24.70
2019-05-02T15:48:04.425Z,24.70
2019-05-02T15:50:34.210Z,24.80
2019-05-02T15:53:12.469Z,24.80
2019-05-02T15:55:43.832Z,24.80
2019-05-02T15:58:25.623Z,24.80
2019-05-02T16:01:11.885Z,24.80
2019-05-02T16:03:49.758Z,24.90
2019-05-02T16:06:23.691Z,24.90
2019-05-02T16:08:51.941Z,24.90
2019-05-02T16:11:23.028Z,25.00
2019-05-02T16:13:55.950Z,25.00
2019-05-02T16:16:25.074Z,25.10
2019-05-02T16:18:55.379Z,25.10
2019-05-02T16:21:32.634Z,25.00
2019-05-02T16:24:23.003Z,25.00
2019-05-02T16:26:56.798Z,24.90
2019-05-02T16:29:28.812Z,24.80
2019-05-02T16:32:16.307Z,24.80
2019-05-02T16:34:56.999Z,24.80
2019-05-02T16:37:27.145Z,24.80
2019-05-02T16:39:57.459Z,24.80
2019-05-02T16:42:27.254Z,24.90
2019-05-02T16:44:57.487Z,24.90
2019-05-02T16:47:27.298Z,24.90
2019-05-02T16:49:57.048Z,24.90
2019-05-02T16:52:26.862Z,24.90
2019-05-02T16:54:57.554Z,24.90
2019-05-02T16:57:27.342Z,24.90
2019-05-02T17:00:01.554Z,24.80
2019-05-02T17:02:28.946Z,24.80
2019-05-02T17:05:00.288Z,24.70
2019-05-02T17:07:47.859Z,24.60
2019-05-02T17:10:34.990Z,24.50
2019-05-02T17:13:05.500Z,24.50
2019-05-02T17:15:37.024Z,24.40
2019-05-02T17:18:18.073Z,24.30
2019-05-02T17:20:39.230Z,24.20
2019-05-02T17:23:09.071Z,24.10
2019-05-02T17:25:38.928Z,23.90
2019-05-02T17:28:12.744Z,23.80
2019-05-02T17:30:43.007Z,23.80
2019-05-02T17:33:16.332Z,23.70
2019-05-02T17:35:50.010Z,23.60
2019-05-02T17:38:19.193Z,23.50
2019-05-02T17:40:51.757Z,23.40
2019-05-02T17:43:22.667Z,23.30
2019-05-02T17:45:52.650Z,23.20
2019-05-02T17:48:22.938Z,23.10
2019-05-02T17:51:02.484Z,23.00
2019-05-02T17:53:33.854Z,22.90
2019-05-02T17:56:04.232Z,22.80
2019-05-02T17:58:34.998Z,22.70
2019-05-02T18:01:07.150Z,22.70
2019-05-02T18:03:37.692Z,22.60
2019-05-02T18:06:12.626Z,22.50
2019-05-02T18:08:41.632Z,22.40
2019-05-02T18:11:12.691Z,22.40
2019-05-02T18:13:43.688Z,22.30
2019-05-02T18:16:16.650Z,22.20
2019-05-02T18:18:46.760Z,22.10
2019-05-02T18:21:17.224Z,22.10
2019-05-02T18:23:49.451Z,22.00
2019-05-02T18:26:19.711Z,21.90
2019-05-02T18:28:49.946Z,21.80
2019-05-02T18:31:21.695Z,21.80
2019-05-02T18:33:52.421Z,21.70
2019-05-02T18:36:23.696Z,21.60
2019-05-02T18:39:00.526Z,21.60
2019-05-02T18:41:27.716Z,21.50
2019-05-02T18:43:58.222Z,21.50
2019-05-02T18:46:28.781Z,21.40
2019-05-02T18:48:58.582Z,21.40
2019-05-02T18:51:28.339Z,21.30
2019-05-02T18:54:04.225Z,21.30
2019-05-02T18:56:35.668Z,21.20
2019-05-02T18:59:02.617Z,21.20
2019-05-02T19:01:32.953Z,21.10
2019-05-02T19:04:03.239Z,21.10
2019-05-02T19:06:36.173Z,21.10
2019-05-02T19:09:06.760Z,21.00
2019-05-02T19:11:37.029Z,21.00
2019-05-02T19:14:06.835Z,20.90
2019-05-02T19:16:37.670Z,20.90
2019-05-02T19:19:07.462Z,20.90
2019-05-02T19:21:39.458Z,20.90
2019-05-02T19:24:08.665Z,20.80
2019-05-02T19:26:43.406Z,20.80
2019-05-02T19:29:21.442Z,20.80
2019-05-02T19:31:52.695Z,20.80
2019-05-02T19:34:26.747Z,20.70
2019-05-02T19:36:58.080Z,20.70
2019-05-02T19:39:28.034Z,20.70
2019-05-02T19:41:57.797Z,20.60
2019-05-02T19:44:29.394Z,20.60
2019-05-02T19:46:59.393Z,20.60
2019-05-02T19:49:29.153Z,20.50
2019-05-02T19:51:58.951Z,20.50
2019-05-02T19:54:31.765Z,20.50
2019-05-02T19:57:01.175Z,20.40
2019-05-02T19:59:32.145Z,20.40
2019-05-02T20:02:05.948Z,20.40
2019-05-02T20:04:37.681Z,20.30
2019-05-02T20:07:05.470Z,20.20
2019-05-02T20:09:38.257Z,20.20
2019-05-02T20:12:09.645Z,20.20
2019-05-02T20:14:43.567Z,20.10
2019-05-02T20:17:10.630Z,20.10
2019-05-02T20:19:42.990Z,20.10
2019-05-02T20:22:17.891Z,20.00
2019-05-02T20:24:59.981Z,20.00
2019-05-02T20:27:28.576Z,19.90
2019-05-02T20:29:58.502Z,19.90
2019-05-02T20:32:28.582Z,19.80
2019-05-02T20:35:00.038Z,19.80
2019-05-02T20:37:29.843Z,19.70
2019-05-02T20:39:59.648Z,19.70
2019-05-02T20:42:32.163Z,19.70
2019-05-02T20:45:02.381Z,19.60
2019-05-02T20:47:32.254Z,19.60
2019-05-02T20:50:05.782Z,19.50
2019-05-02T20:52:35.400Z,19.50
2019-05-02T20:55:05.510Z,19.40
2019-05-02T20:57:36.147Z,19.40
2019-05-02T21:00:07.332Z,19.30
2019-05-02T21:02:38.468Z,19.30
2019-05-02T21:05:09.052Z,19.20
2019-05-02T21:07:56.426Z,19.10
2019-05-02T21:10:29.709Z,19.10
2019-05-02T21:13:01.942Z,19.10
2019-05-02T21:15:32.360Z,19.00
2019-05-02T21:18:02.598Z,18.90
2019-05-02T21:20:33.276Z,18.80
2019-05-02T21:23:03.089Z,18.80
2019-05-02T21:25:32.838Z,18.80
2019-05-02T21:28:02.933Z,18.70
2019-05-02T21:30:32.820Z,18.60
2019-05-02T21:33:03.019Z,18.60
2019-05-02T21:35:32.933Z,18.60
2019-05-02T21:38:03.661Z,18.50
2019-05-02T21:40:34.510Z,18.50
2019-05-02T21:43:04.768Z,18.50
2019-05-02T21:45:35.061Z,18.40
2019-05-02T21:48:05.231Z,18.40
2019-05-02T21:50:43.849Z,18.30
2019-05-02T21:53:23.346Z,18.30
2019-05-02T21:56:13.265Z,18.30
2019-05-02T21:59:02.955Z,18.30
2019-05-02T22:01:33.576Z,18.20
2019-05-02T22:04:03.488Z,18.20
2019-05-02T22:06:33.965Z,18.20
2019-05-02T22:09:04.487Z,18.20
2019-05-02T22:11:34.327Z,18.20
2019-05-02T22:14:04.089Z,18.20
2019-05-02T22:16:33.881Z,18.10
2019-05-02T22:19:04.086Z,18.10
2019-05-02T22:21:35.108Z,18.10
2019-05-02T22:24:11.092Z,18.10
2019-05-02T22:26:36.589Z,18.00
2019-05-02T22:29:06.340Z,18.00
2019-05-02T22:31:36.246Z,17.90
2019-05-02T22:34:06.726Z,17.90
2019-05-02T22:36:36.532Z,17.90
2019-05-02T22:39:36.115Z,17.80
2019-05-02T22:42:05.908Z,17.80
2019-05-02T22:44:35.667Z,17.70
2019-05-02T22:47:05.465Z,17.60
2019-05-02T22:49:35.230Z,17.60
2019-05-02T22:52:05.035Z,17.60
2019-05-02T22:54:35.277Z,17.50
2019-05-02T22:57:05.087Z,17.50
2019-05-02T22:59:35.237Z,17.50
2019-05-02T23:02:05.038Z,17.40
2019-05-02T23:04:35.147Z,17.40
2019-05-02T23:07:05.426Z,17.40
2019-05-02T23:09:35.665Z,17.40
2019-05-02T23:12:06.182Z,17.40
2019-05-02T23:14:35.927Z,17.40
2019-05-02T23:17:06.242Z,17.40
2019-05-02T23:19:36.520Z,17.40
2019-05-02T23:22:06.792Z,17.40
2019-05-02T23:25:04.737Z,17.40
2019-05-02T23:27:49.256Z,17.40
2019-05-02T23:30:22.533Z,17.30
2019-05-02T23:32:52.690Z,17.30
2019-05-02T23:35:22.925Z,17.30
2019-05-02T23:37:53.011Z,17.30
2019-05-02T23:40:23.025Z,17.20
2019-05-02T23:42:53.286Z,17.30
2019-05-02T23:45:23.572Z,17.30
2019-05-02T23:47:53.886Z,17.20
2019-05-02T23:50:24.116Z,17.20
2019-05-02T23:52:54.322Z,17.20
2019-05-02T23:55:24.631Z,17.20
2019-05-02T23:57:54.919Z,17.10
